createdAt,value
2022-12-16T00:00:49.058Z,17.90
2022-12-16T00:03:15.749Z,17.80
2022-12-16T00:05:44.471Z,17.80
2022-12-16T00:08:11.251Z,17.80
2022-12-16T00:10:52.960Z,17.80
2022-12-16T00:13:20.257Z,17.80
2022-12-16T00:15:46.943Z,17.80
2022-12-16T00:18:14.031Z,17.80
2022-12-16T00:20:47.904Z,17.80
2022-12-16T00:23:14.572Z,17.80
2022-12-16T00:25:45.595Z,17.80
2022-12-16T00:28:14.039Z,17.80
2022-12-16T00:30:42.384Z,17.80
2022-12-16T00:33:09.557Z,17.80
2022-12-16T00:35:36.194Z,17.80
2022-12-16T00:38:02.835Z,17.80
2022-12-16T00:40:29.467Z,17.70
2022-12-16T00:42:56.061Z,17.70
2022-12-16T00:45:22.691Z,17.70
2022-12-16T00:47:51.006Z,17.70
2022-12-16T00:50:20.274Z,17.70
2022-12-16T00:52:48.320Z,17.70
2022-12-16T00:55:16.333Z,17.70
2022-12-16T00:57:43.732Z,17.70
2022-12-16T01:00:12.944Z,17.70
2022-12-16T01:02:44.617Z,17.70
2022-12-16T01:05:14.208Z,17.70
2022-12-16T01:07:40.962Z,17.70
2022-12-16T01:10:09.369Z,17.70
2022-12-16T01:12:37.230Z,17.70
2022-12-16T01:15:06.138Z,17.70
2022-12-16T01:17:33.001Z,17.70
2022-12-16T01:19:59.675Z,17.70
2022-12-16T01:22:26.534Z,17.70
2022-12-16T01:24:53.343Z,17.70
2022-12-16T01:27:21.883Z,17.60
2022-12-16T01:29:48.451Z,17.70
2022-12-16T01:32:15.950Z,17.60
2022-12-16T01:34:43.063Z,17.70
2022-12-16T01:37:12.587Z,17.70
2022-12-16T01:39:39.427Z,17.60
2022-12-16T01:42:12.880Z,17.60
2022-12-16T01:44:43.550Z,17.60
2022-12-16T01:47:16.010Z,17.60
2022-12-16T01:50:03.011Z,17.60
2022-12-16T01:52:35.051Z,17.60
2022-12-16T01:55:07.162Z,17.60
2022-12-16T01:57:40.581Z,17.60
2022-12-16T02:00:07.940Z,17.60
2022-12-16T02:02:35.078Z,17.60
2022-12-16T02:05:20.401Z,17.60
2022-12-16T02:08:11.216Z,17.60
2022-12-16T02:11:04.356Z,17.60
2022-12-16T02:13:55.807Z,17.60
2022-12-16T02:16:30.438Z,17.60
2022-12-16T02:19:20.007Z,17.60
2022-12-16T02:22:02.405Z,17.50
2022-12-16T02:24:47.036Z,17.50
2022-12-16T02:27:39.317Z,17.50
2022-12-16T02:30:20.550Z,17.50
2022-12-16T02:33:14.218Z,17.50
2022-12-16T02:36:17.303Z,17.50
2022-12-16T02:38:46.659Z,17.50
2022-12-16T02:41:23.191Z,17.50
2022-12-16T02:44:03.795Z,17.50
2022-12-16T02:46:35.045Z,17.50
2022-12-16T02:49:07.560Z,17.50
2022-12-16T02:51:37.895Z,17.50
2022-12-16T02:54:06.928Z,17.50
2022-12-16T02:57:05.577Z,17.50
2022-12-16T02:59:47.261Z,17.50
2022-12-16T03:02:28.960Z,17.50
2022-12-16T03:05:04.050Z,17.50
2022-12-16T03:07:36.371Z,17.50
2022-12-16T03:10:07.607Z,17.50
2022-12-16T03:12:36.569Z,17.50
2022-12-16T03:15:04.071Z,17.50
2022-12-16T03:17:30.807Z,17.50
2022-12-16T03:20:10.507Z,17.50
2022-12-16T03:22:41.546Z,17.40
2022-12-16T03:25:09.260Z,17.50
2022-12-16T03:27:55.771Z,17.40
2022-12-16T03:30:29.872Z,17.40
2022-12-16T03:33:22.665Z,17.40
2022-12-16T03:35:54.473Z,17.40
2022-12-16T03:38:21.993Z,17.40
2022-12-16T03:40:49.983Z,17.40
2022-12-16T03:43:17.302Z,17.40
2022-12-16T03:45:46.077Z,17.40
2022-12-16T03:48:13.884Z,17.40
2022-12-16T03:50:40.841Z,17.40
2022-12-16T03:53:08.843Z,17.50
2022-12-16T03:55:35.740Z,17.40
2022-12-16T03:58:02.372Z,17.40
2022-12-16T04:00:29.031Z,17.40
2022-12-16T04:02:55.835Z,17.40
2022-12-16T04:05:23.254Z,17.40
2022-12-16T04:07:50.296Z,17.40
2022-12-16T04:10:17.069Z,17.30
2022-12-16T04:13:02.155Z,17.40
2022-12-16T04:15:47.580Z,17.30
2022-12-16T04:18:35.187Z,17.30
2022-12-16T04:21:21.596Z,17.30
2022-12-16T04:24:13.908Z,17.30
2022-12-16T04:26:59.394Z,17.30
2022-12-16T04:29:26.247Z,17.30
2022-12-16T04:31:53.111Z,17.30
2022-12-16T04:34:27.226Z,17.40
2022-12-16T04:37:14.560Z,17.30
2022-12-16T04:39:59.969Z,17.30
2022-12-16T04:42:45.420Z,17.30
2022-12-16T04:45:31.163Z,17.30
2022-12-16T04:48:20.990Z,17.30
2022-12-16T04:51:06.240Z,17.30
2022-12-16T04:53:51.503Z,17.30
2022-12-16T04:56:36.398Z,17.30
2022-12-16T04:59:21.496Z,17.30
2022-12-16T05:02:06.629Z,17.30
2022-12-16T05:04:51.838Z,17.30
2022-12-16T05:07:38.669Z,17.30
2022-12-16T05:10:25.631Z,17.30
2022-12-16T05:13:14.056Z,17.20
2022-12-16T05:15:59.409Z,17.20
2022-12-16T05:18:44.860Z,17.20
2022-12-16T05:21:30.042Z,17.30
2022-12-16T05:24:15.133Z,17.30
2022-12-16T05:27:00.195Z,17.20
2022-12-16T05:29:45.668Z,17.30
2022-12-16T05:32:30.758Z,17.30
2022-12-16T05:35:16.079Z,17.30
2022-12-16T05:38:01.556Z,17.20
2022-12-16T05:40:46.792Z,17.30
2022-12-16T05:43:32.578Z,17.30
2022-12-16T05:46:18.242Z,17.30
2022-12-16T05:49:03.588Z,17.30
2022-12-16T05:51:48.959Z,17.30
2022-12-16T05:54:34.296Z,17.30
2022-12-16T05:57:19.669Z,17.30
2022-12-16T06:00:05.076Z,17.20
2022-12-16T06:02:50.429Z,17.30
2022-12-16T06:05:49.271Z,17.20
2022-12-16T06:08:34.256Z,17.30
2022-12-16T06:11:19.210Z,17.30
2022-12-16T06:14:04.230Z,17.30
2022-12-16T06:16:49.408Z,17.30
2022-12-16T06:19:34.353Z,17.30
2022-12-16T06:22:19.395Z,17.30
2022-12-16T06:25:04.232Z,17.30
2022-12-16T06:27:49.472Z,17.30
2022-12-16T06:30:34.722Z,17.30
2022-12-16T06:33:19.658Z,17.20
2022-12-16T06:36:04.648Z,17.20
2022-12-16T06:38:54.358Z,17.20
2022-12-16T06:41:39.694Z,17.20
2022-12-16T06:44:24.528Z,17.30
2022-12-16T06:47:09.564Z,17.40
2022-12-16T06:49:54.544Z,17.40
2022-12-16T06:52:39.706Z,17.50
2022-12-16T06:55:25.271Z,17.40
2022-12-16T06:58:16.331Z,17.40
2022-12-16T07:01:02.833Z,17.40
2022-12-16T07:03:48.311Z,17.40
2022-12-16T07:06:33.247Z,17.40
2022-12-16T07:09:18.411Z,17.40
2022-12-16T07:12:03.405Z,17.40
2022-12-16T07:14:48.739Z,17.40
2022-12-16T07:17:33.824Z,17.40
2022-12-16T07:20:19.206Z,17.50
2022-12-16T07:23:13.145Z,17.50
2022-12-16T07:26:02.792Z,17.50
2022-12-16T07:28:58.773Z,17.40
2022-12-16T07:31:44.037Z,17.50
2022-12-16T07:34:29.200Z,17.50
2022-12-16T07:37:14.079Z,17.50
2022-12-16T07:39:59.160Z,17.50
2022-12-16T07:42:44.165Z,17.50
2022-12-16T07:45:29.635Z,17.50
2022-12-16T07:48:28.737Z,17.60
2022-12-16T07:51:13.968Z,17.60
2022-12-16T07:53:59.151Z,17.60
2022-12-16T07:56:44.133Z,17.60
2022-12-16T07:59:29.204Z,17.60
2022-12-16T08:02:14.543Z,17.60
2022-12-16T08:04:59.684Z,17.60
2022-12-16T08:07:44.743Z,17.70
2022-12-16T08:10:29.631Z,17.70
2022-12-16T08:13:25.780Z,17.70
2022-12-16T08:16:11.548Z,17.70
2022-12-16T08:18:56.899Z,17.70
2022-12-16T08:21:42.059Z,17.70
2022-12-16T08:24:27.511Z,17.70
2022-12-16T08:27:12.778Z,17.70
2022-12-16T08:29:57.997Z,17.70
2022-12-16T08:32:43.080Z,17.70
2022-12-16T08:35:28.558Z,17.70
2022-12-16T08:38:15.530Z,17.70
2022-12-16T08:41:01.992Z,17.80
2022-12-16T08:43:50.438Z,17.80
2022-12-16T08:46:36.629Z,17.80
2022-12-16T08:49:22.485Z,17.80
2022-12-16T08:52:07.962Z,17.80
2022-12-16T08:54:53.748Z,17.80
2022-12-16T08:57:39.246Z,17.80
2022-12-16T09:00:25.398Z,17.80
2022-12-16T09:03:17.726Z,17.80
2022-12-16T09:06:03.823Z,17.80
2022-12-16T09:08:49.299Z,17.90
2022-12-16T09:11:34.608Z,17.80
2022-12-16T09:14:19.963Z,17.90
2022-12-16T09:17:06.686Z,17.90
2022-12-16T09:19:51.744Z,17.90
2022-12-16T09:22:39.155Z,17.90
2022-12-16T09:25:24.747Z,17.90
2022-12-16T09:28:10.041Z,17.90
2022-12-16T09:30:55.532Z,17.90
2022-12-16T09:33:41.037Z,17.90
2022-12-16T09:36:26.414Z,18.00
2022-12-16T09:39:11.886Z,17.90
2022-12-16T09:42:09.783Z,17.90
2022-12-16T09:45:11.412Z,17.90
2022-12-16T09:48:03.608Z,18.00
2022-12-16T09:50:50.103Z,17.90
2022-12-16T09:53:40.164Z,17.90
2022-12-16T09:56:47.042Z,18.00
2022-12-16T09:59:37.926Z,17.90
2022-12-16T10:02:30.139Z,18.00
2022-12-16T10:05:16.001Z,18.00
2022-12-16T10:08:11.961Z,18.00
2022-12-16T10:11:14.736Z,18.00
2022-12-16T10:14:07.348Z,18.00
2022-12-16T10:17:19.779Z,18.00
2022-12-16T10:20:09.158Z,18.00
2022-12-16T10:23:04.486Z,18.00
2022-12-16T10:26:14.894Z,18.00
2022-12-16T10:29:08.405Z,18.10
2022-12-16T10:31:56.005Z,18.00
2022-12-16T10:34:51.176Z,18.10
2022-12-16T10:37:56.323Z,18.10
2022-12-16T10:40:48.707Z,18.10
2022-12-16T10:43:38.870Z,18.10
2022-12-16T10:46:40.876Z,18.10
2022-12-16T10:49:34.403Z,18.10
2022-12-16T10:52:20.328Z,18.10
2022-12-16T10:55:13.053Z,18.10
2022-12-16T10:58:14.892Z,18.10
2022-12-16T11:01:04.355Z,18.10
2022-12-16T11:03:51.866Z,18.10
2022-12-16T11:06:45.398Z,18.10
2022-12-16T11:09:48.723Z,18.10
2022-12-16T11:12:40.960Z,18.10
2022-12-16T11:15:48.944Z,18.10
2022-12-16T11:18:35.359Z,18.10
2022-12-16T11:21:28.999Z,18.10
2022-12-16T11:24:35.927Z,18.10
2022-12-16T11:27:23.651Z,18.10
2022-12-16T11:30:12.095Z,18.10
2022-12-16T11:33:00.723Z,18.10
2022-12-16T11:35:50.128Z,18.20
2022-12-16T11:38:46.110Z,18.10
2022-12-16T11:41:58.436Z,18.10
2022-12-16T11:44:53.024Z,18.10
2022-12-16T11:47:54.537Z,18.10
2022-12-16T11:50:42.634Z,18.10
2022-12-16T11:53:47.258Z,18.10
2022-12-16T11:56:41.044Z,18.10
2022-12-16T12:00:00.432Z,18.10
2022-12-16T12:02:52.930Z,18.10
2022-12-16T12:05:51.824Z,18.10
2022-12-16T12:09:25.806Z,18.10
2022-12-16T12:12:30.668Z,18.10
2022-12-16T12:15:21.492Z,18.10
2022-12-16T12:18:33.473Z,18.10
2022-12-16T12:21:48.616Z,18.10
2022-12-16T12:24:58.181Z,18.10
2022-12-16T12:27:53.678Z,18.10
2022-12-16T12:30:40.699Z,18.10
2022-12-16T12:33:42.352Z,18.10
2022-12-16T12:36:43.381Z,18.10
2022-12-16T12:39:42.136Z,18.10
2022-12-16T12:42:51.973Z,18.00
2022-12-16T12:45:46.110Z,18.10
2022-12-16T12:48:38.122Z,18.10
2022-12-16T12:51:48.451Z,18.10
2022-12-16T12:54:51.639Z,18.10
2022-12-16T12:57:41.108Z,18.10
2022-12-16T13:00:36.697Z,18.10
2022-12-16T13:03:51.276Z,18.00
2022-12-16T13:06:37.447Z,18.10
2022-12-16T13:09:41.157Z,18.10
2022-12-16T13:12:26.227Z,18.00
2022-12-16T13:15:14.007Z,18.10
2022-12-16T13:18:18.027Z,18.00
2022-12-16T13:21:04.892Z,17.20
2022-12-16T13:23:54.482Z,18.10
2022-12-16T13:26:45.556Z,18.10
2022-12-16T13:29:49.421Z,18.10
2022-12-16T13:32:41.285Z,18.00
2022-12-16T13:35:29.203Z,18.00
2022-12-16T13:38:17.771Z,18.10
2022-12-16T13:41:12.010Z,18.10
2022-12-16T13:44:10.935Z,18.10
2022-12-16T13:47:06.256Z,18.10
2022-12-16T13:49:53.991Z,18.10
2022-12-16T13:53:10.158Z,18.10
2022-12-16T13:56:10.787Z,18.10
2022-12-16T13:59:16.665Z,18.10
2022-12-16T14:02:13.734Z,18.10
2022-12-16T14:05:08.527Z,18.10
2022-12-16T14:07:58.015Z,18.10
2022-12-16T14:10:50.126Z,18.10
2022-12-16T14:13:35.933Z,18.10
2022-12-16T14:16:56.734Z,18.10
2022-12-16T14:19:48.234Z,18.10
2022-12-16T14:22:42.680Z,18.00
2022-12-16T14:25:37.813Z,18.10
2022-12-16T14:28:48.800Z,18.10
2022-12-16T14:31:55.155Z,18.10
2022-12-16T14:34:53.249Z,18.00
2022-12-16T14:37:55.912Z,18.00
2022-12-16T14:40:46.157Z,18.00
2022-12-16T14:43:40.700Z,18.00
2022-12-16T14:46:50.949Z,18.00
2022-12-16T14:49:42.539Z,18.00
2022-12-16T14:52:42.491Z,18.00
2022-12-16T14:55:46.675Z,18.00
2022-12-16T14:58:40.705Z,18.00
2022-12-16T15:01:37.768Z,18.00
2022-12-16T15:04:32.195Z,18.00
2022-12-16T15:07:18.025Z,18.00
2022-12-16T15:10:06.561Z,18.00
2022-12-16T15:12:56.447Z,18.00
2022-12-16T15:15:50.066Z,18.00
2022-12-16T15:18:46.278Z,18.00
2022-12-16T15:21:31.378Z,18.00
2022-12-16T15:24:16.481Z,18.00
2022-12-16T15:27:03.270Z,18.20
2022-12-16T15:29:59.962Z,18.30
2022-12-16T15:32:52.000Z,18.30
2022-12-16T15:35:44.646Z,18.30
2022-12-16T15:38:34.258Z,18.30
2022-12-16T15:41:21.834Z,18.30
2022-12-16T15:44:07.721Z,18.30
2022-12-16T15:46:53.857Z,18.30
2022-12-16T15:50:11.010Z,18.30
2022-12-16T15:52:57.311Z,18.30
2022-12-16T15:55:45.156Z,18.30
2022-12-16T15:58:37.051Z,18.30
2022-12-16T16:01:23.123Z,18.30
2022-12-16T16:04:13.651Z,18.30
2022-12-16T16:07:08.350Z,18.30
2022-12-16T16:09:55.547Z,18.30
2022-12-16T16:12:42.727Z,18.30
2022-12-16T16:15:30.726Z,18.30
2022-12-16T16:18:19.250Z,18.30
2022-12-16T16:21:05.211Z,18.30
2022-12-16T16:23:50.551Z,18.30
2022-12-16T16:26:39.746Z,18.30
2022-12-16T16:29:25.224Z,18.30
2022-12-16T16:32:11.480Z,18.30
2022-12-16T16:34:56.696Z,18.30
2022-12-16T16:37:43.167Z,18.30
2022-12-16T16:40:57.079Z,18.30
2022-12-16T16:43:43.593Z,18.30
2022-12-16T16:46:46.631Z,18.30
2022-12-16T16:49:39.060Z,18.40
2022-12-16T16:52:28.343Z,18.30
2022-12-16T16:55:13.661Z,18.20
2022-12-16T16:57:59.025Z,18.20
2022-12-16T17:00:44.148Z,18.20
2022-12-16T17:03:30.013Z,18.20
2022-12-16T17:06:15.464Z,18.20
2022-12-16T17:09:04.078Z,18.30
2022-12-16T17:11:49.808Z,18.20
2022-12-16T17:14:37.181Z,18.40
2022-12-16T17:17:22.649Z,18.40
2022-12-16T17:20:08.050Z,18.50
2022-12-16T17:22:53.444Z,18.50
2022-12-16T17:25:39.180Z,18.60
2022-12-16T17:28:24.674Z,18.60
2022-12-16T17:31:09.892Z,18.60
2022-12-16T17:33:55.312Z,18.50
2022-12-16T17:36:40.626Z,18.50
2022-12-16T17:39:26.042Z,18.50
2022-12-16T17:42:11.487Z,18.50
2022-12-16T17:44:56.882Z,18.50
2022-12-16T17:47:42.376Z,18.50
2022-12-16T17:50:28.351Z,18.50
2022-12-16T17:53:15.203Z,18.50
2022-12-16T17:56:00.549Z,18.50
2022-12-16T17:58:56.720Z,18.50
2022-12-16T18:01:42.169Z,18.50
2022-12-16T18:04:27.629Z,18.50
2022-12-16T18:07:13.030Z,18.50
2022-12-16T18:09:58.426Z,18.50
2022-12-16T18:12:44.081Z,18.50
2022-12-16T18:15:29.359Z,18.40
2022-12-16T18:18:14.787Z,18.40
2022-12-16T18:21:00.259Z,18.40
2022-12-16T18:23:48.539Z,18.40
2022-12-16T18:26:34.507Z,18.40
2022-12-16T18:29:19.960Z,18.40
2022-12-16T18:32:11.590Z,18.30
2022-12-16T18:34:56.578Z,18.30
2022-12-16T18:37:42.751Z,18.30
2022-12-16T18:40:29.331Z,18.30
2022-12-16T18:43:14.965Z,18.30
2022-12-16T18:46:00.003Z,18.30
2022-12-16T18:48:45.389Z,18.30
2022-12-16T18:51:30.558Z,18.30
2022-12-16T18:54:15.349Z,18.40
2022-12-16T18:57:00.415Z,18.40
2022-12-16T18:59:45.329Z,18.40
2022-12-16T19:02:30.630Z,18.50
2022-12-16T19:05:15.922Z,18.40
2022-12-16T19:08:07.929Z,18.40
2022-12-16T19:10:56.374Z,18.50
2022-12-16T19:13:41.340Z,18.40
2022-12-16T19:16:26.873Z,18.40
2022-12-16T19:19:17.829Z,18.40
2022-12-16T19:22:05.622Z,18.40
2022-12-16T19:24:50.791Z,18.40
2022-12-16T19:27:35.930Z,18.40
2022-12-16T19:30:28.112Z,18.50
2022-12-16T19:33:13.391Z,18.50
2022-12-16T19:35:58.341Z,18.40
2022-12-16T19:38:43.624Z,18.40
2022-12-16T19:41:33.837Z,18.40
2022-12-16T19:44:19.292Z,18.30
2022-12-16T19:47:04.437Z,18.30
2022-12-16T19:49:49.925Z,18.30
2022-12-16T19:52:35.289Z,18.20
2022-12-16T19:55:20.924Z,18.30
2022-12-16T19:58:06.180Z,18.30
2022-12-16T20:00:51.251Z,18.20
2022-12-16T20:03:37.999Z,18.30
2022-12-16T20:06:26.131Z,18.20
2022-12-16T20:09:13.403Z,18.20
2022-12-16T20:12:13.476Z,18.20
2022-12-16T20:14:58.707Z,18.20
2022-12-16T20:17:43.816Z,18.20
2022-12-16T20:20:29.492Z,18.10
2022-12-16T20:23:15.292Z,18.10
2022-12-16T20:26:00.215Z,18.10
2022-12-16T20:28:45.838Z,18.10
2022-12-16T20:31:31.006Z,18.10
2022-12-16T20:34:16.495Z,18.10
2022-12-16T20:37:01.580Z,18.10
2022-12-16T20:39:56.370Z,18.10
2022-12-16T20:42:43.247Z,18.10
2022-12-16T20:45:29.210Z,18.10
2022-12-16T20:48:14.595Z,18.10
2022-12-16T20:50:59.916Z,18.10
2022-12-16T20:53:45.084Z,18.00
2022-12-16T20:56:30.663Z,18.00
2022-12-16T20:59:15.936Z,18.00
2022-12-16T21:02:22.786Z,18.00
2022-12-16T21:05:06.377Z,18.00
2022-12-16T21:07:52.237Z,18.00
2022-12-16T21:10:38.681Z,18.00
2022-12-16T21:13:29.223Z,18.00
2022-12-16T21:16:16.576Z,18.00
2022-12-16T21:19:02.158Z,18.00
2022-12-16T21:21:55.449Z,18.00
2022-12-16T21:24:42.568Z,18.00
2022-12-16T21:27:28.097Z,18.00
2022-12-16T21:30:13.453Z,18.00
2022-12-16T21:32:58.542Z,18.00
2022-12-16T21:35:43.474Z,17.90
2022-12-16T21:38:30.510Z,18.00
2022-12-16T21:41:16.013Z,17.90
2022-12-16T21:44:01.498Z,17.90
2022-12-16T21:46:46.979Z,17.90
2022-12-16T21:49:32.398Z,17.90
2022-12-16T21:52:18.052Z,17.90
2022-12-16T21:55:03.429Z,17.90
2022-12-16T21:57:48.438Z,20.20
2022-12-16T22:00:34.050Z,18.00
2022-12-16T22:03:19.301Z,18.10
2022-12-16T22:06:04.517Z,18.10
2022-12-16T22:08:49.915Z,18.10
2022-12-16T22:11:35.273Z,18.00
2022-12-16T22:14:20.836Z,18.00
2022-12-16T22:17:06.263Z,18.00
2022-12-16T22:19:51.776Z,18.00
2022-12-16T22:22:37.103Z,18.00
2022-12-16T22:25:23.448Z,17.90
2022-12-16T22:28:09.069Z,18.00
2022-12-16T22:30:56.143Z,17.90
2022-12-16T22:33:41.774Z,17.90
2022-12-16T22:36:29.198Z,17.90
2022-12-16T22:39:15.120Z,17.90
2022-12-16T22:42:00.723Z,17.90
2022-12-16T22:44:46.223Z,17.90
2022-12-16T22:47:31.543Z,17.90
2022-12-16T22:50:17.042Z,17.90
2022-12-16T22:53:02.332Z,17.90
2022-12-16T22:55:47.667Z,17.80
2022-12-16T22:58:32.804Z,17.90
2022-12-16T23:01:18.968Z,17.90
2022-12-16T23:04:04.496Z,17.80
2022-12-16T23:06:49.856Z,17.80
2022-12-16T23:09:35.230Z,17.80
2022-12-16T23:12:20.517Z,17.80
2022-12-16T23:15:05.621Z,17.80
2022-12-16T23:17:50.764Z,17.80
2022-12-16T23:20:37.289Z,17.80
2022-12-16T23:23:22.745Z,17.80
2022-12-16T23:26:18.703Z,17.80
2022-12-16T23:29:07.206Z,17.80
2022-12-16T23:31:52.332Z,17.80
2022-12-16T23:34:45.763Z,17.80
2022-12-16T23:37:32.452Z,17.80
2022-12-16T23:40:17.988Z,17.70
2022-12-16T23:43:07.873Z,17.70
2022-12-16T23:45:54.154Z,17.80
2022-12-16T23:48:41.834Z,17.70
2022-12-16T23:51:26.844Z,17.70
2022-12-16T23:54:11.782Z,17.70
2022-12-16T23:56:56.931Z,17.70
2022-12-16T23:59:41.870Z,17.70
